createdAt,value
2023-03-05T00:00:52.709Z,0.30
2023-03-05T00:04:54.342Z,0.47
2023-03-05T00:08:58.198Z,0.80
2023-03-05T00:12:59.686Z,1.13
2023-03-05T00:17:01.178Z,0.30
2023-03-05T00:21:03.523Z,0.35
2023-03-05T00:25:05.972Z,0.55
2023-03-05T00:29:08.965Z,0.35
2023-03-05T00:33:12.143Z,0.50
2023-03-05T00:37:13.590Z,0.50
2023-03-05T00:41:15.041Z,1.08
2023-03-05T00:45:16.567Z,0.35
2023-03-05T00:49:18.141Z,0.40
2023-03-05T00:53:20.059Z,0.57
2023-03-05T00:57:21.563Z,0.60
2023-03-05T01:01:23.082Z,0.60
2023-03-05T01:05:24.625Z,0.70
2023-03-05T01:09:26.185Z,0.45
2023-03-05T01:13:27.757Z,0.57
2023-03-05T01:17:29.236Z,0.43
2023-03-05T01:21:30.820Z,0.60
2023-03-05T01:25:32.287Z,0.52
2023-03-05T01:29:33.771Z,0.30
2023-03-05T01:33:35.225Z,0.50
2023-03-05T01:37:36.760Z,0.30
2023-03-05T01:41:38.225Z,0.30
2023-03-05T01:46:17.789Z,0.50
2023-03-05T01:50:23.510Z,0.32
2023-03-05T01:54:31.515Z,0.50
2023-03-05T01:58:33.342Z,0.38
2023-03-05T02:02:34.821Z,0.30
2023-03-05T02:06:38.456Z,0.73
2023-03-05T02:10:46.607Z,1.30
2023-03-05T02:14:50.953Z,0.50
2023-03-05T02:18:52.377Z,0.35
2023-03-05T02:22:53.873Z,0.40
2023-03-05T02:26:55.366Z,0.75
2023-03-05T02:30:56.856Z,0.52
2023-03-05T02:34:58.326Z,0.30
2023-03-05T02:39:00.217Z,0.30
2023-03-05T02:43:02.070Z,0.85
2023-03-05T02:47:04.301Z,0.40
2023-03-05T02:51:07.982Z,0.52
2023-03-05T02:55:10.142Z,0.65
2023-03-05T02:59:12.948Z,0.30
2023-03-05T03:03:14.959Z,0.52
2023-03-05T03:07:16.591Z,0.35
2023-03-05T03:11:18.636Z,0.52
2023-03-05T03:15:20.192Z,0.30
2023-03-05T03:19:21.587Z,0.82
2023-03-05T03:23:23.025Z,0.30
2023-03-05T03:27:24.478Z,0.73
2023-03-05T03:31:25.934Z,0.60
2023-03-05T03:35:27.360Z,0.70
2023-03-05T03:39:29.152Z,0.40
2023-03-05T03:43:30.557Z,0.60
2023-03-05T03:47:31.988Z,0.57
2023-03-05T03:51:33.485Z,0.32
2023-03-05T03:55:35.192Z,0.55
2023-03-05T03:59:36.599Z,0.50
2023-03-05T04:03:38.023Z,0.45
2023-03-05T04:07:39.432Z,0.47
2023-03-05T04:11:40.922Z,0.68
2023-03-05T04:15:42.429Z,0.40
2023-03-05T04:19:43.906Z,0.38
2023-03-05T04:23:45.634Z,0.57
2023-03-05T04:27:47.060Z,0.50
2023-03-05T04:31:48.500Z,0.30
2023-03-05T04:35:50.569Z,0.75
2023-03-05T04:39:53.003Z,0.40
2023-03-05T04:43:54.479Z,0.50
2023-03-05T04:47:56.230Z,0.40
2023-03-05T04:51:57.730Z,1.30
2023-03-05T04:56:01.395Z,0.30
2023-03-05T05:00:06.847Z,0.40
2023-03-05T05:04:08.870Z,0.60
2023-03-05T05:08:10.708Z,0.30
2023-03-05T05:12:12.127Z,0.40
2023-03-05T05:16:14.001Z,0.30
2023-03-05T05:20:16.812Z,0.50
2023-03-05T05:24:18.319Z,0.40
2023-03-05T05:28:19.702Z,0.82
2023-03-05T05:32:23.829Z,0.50
2023-03-05T05:36:25.439Z,0.40
2023-03-05T05:40:26.882Z,0.40
2023-03-05T05:44:28.320Z,0.40
2023-03-05T05:48:31.380Z,0.95
2023-03-05T05:52:32.814Z,0.60
2023-03-05T05:56:34.251Z,0.30
2023-03-05T06:00:35.676Z,0.50
2023-03-05T06:04:37.689Z,0.43
2023-03-05T06:08:40.139Z,1.00
2023-03-05T06:12:41.720Z,0.45
2023-03-05T06:16:43.249Z,0.57
2023-03-05T06:20:44.689Z,0.40
2023-03-05T06:24:46.135Z,0.30
2023-03-05T06:28:48.285Z,0.30
2023-03-05T06:32:49.682Z,0.50
2023-03-05T06:36:51.212Z,0.38
2023-03-05T06:40:52.666Z,0.57
2023-03-05T06:44:54.080Z,0.20
2023-03-05T06:49:00.641Z,0.65
2023-03-05T06:53:02.398Z,0.65
2023-03-05T06:57:04.007Z,0.40
2023-03-05T07:01:07.297Z,0.95
2023-03-05T07:05:09.024Z,0.75
2023-03-05T07:09:14.117Z,1.05
2023-03-05T07:13:15.553Z,0.77
2023-03-05T07:17:17.845Z,0.35
2023-03-05T07:21:22.590Z,0.40
2023-03-05T07:25:24.431Z,0.40
2023-03-05T07:29:27.220Z,0.35
2023-03-05T07:33:28.810Z,0.50
2023-03-05T07:37:30.247Z,0.40
2023-03-05T07:41:32.008Z,0.30
2023-03-05T07:45:33.415Z,0.45
2023-03-05T07:49:35.269Z,0.40
2023-03-05T07:53:36.906Z,0.60
2023-03-05T07:57:38.975Z,0.40
2023-03-05T08:01:40.874Z,0.38
2023-03-05T08:05:42.819Z,0.40
2023-03-05T08:09:44.285Z,0.32
2023-03-05T08:13:45.828Z,0.50
2023-03-05T08:17:47.378Z,0.30
2023-03-05T08:21:48.901Z,0.80
2023-03-05T08:25:50.429Z,0.50
2023-03-05T08:29:51.889Z,0.65
2023-03-05T08:33:56.006Z,0.30
2023-03-05T08:37:57.423Z,0.32
2023-03-05T08:41:59.005Z,0.77
2023-03-05T08:46:01.290Z,0.30
2023-03-05T08:50:05.728Z,0.40
2023-03-05T08:54:08.755Z,0.32
2023-03-05T08:58:10.221Z,0.40
2023-03-05T09:02:16.068Z,0.70
2023-03-05T09:06:20.545Z,0.40
2023-03-05T09:10:22.065Z,0.98
2023-03-05T09:14:23.489Z,0.40
2023-03-05T09:18:25.357Z,0.68
2023-03-05T09:22:26.804Z,0.30
2023-03-05T09:26:28.268Z,0.32
2023-03-05T09:30:29.715Z,0.38
2023-03-05T09:34:31.444Z,0.30
2023-03-05T09:38:33.093Z,0.30
2023-03-05T09:43:21.926Z,0.77
2023-03-05T09:47:45.302Z,0.30
2023-03-05T09:51:52.570Z,0.63
2023-03-05T09:56:06.230Z,0.30
2023-03-05T10:00:32.465Z,0.70
2023-03-05T10:04:54.824Z,0.32
2023-03-05T10:09:08.235Z,0.40
2023-03-05T10:13:25.785Z,0.30
2023-03-05T10:17:56.577Z,0.30
2023-03-05T10:22:17.701Z,0.30
2023-03-05T10:26:47.063Z,0.30
2023-03-05T10:31:09.881Z,0.30
2023-03-05T10:35:40.780Z,0.40
2023-03-05T10:40:16.417Z,0.30
2023-03-05T10:44:32.206Z,0.50
2023-03-05T10:48:58.738Z,0.30
2023-03-05T10:53:24.851Z,0.47
2023-03-05T10:57:31.500Z,0.30
2023-03-05T11:01:33.166Z,0.30
2023-03-05T11:05:48.461Z,0.40
2023-03-05T11:10:18.175Z,0.43
2023-03-05T11:14:31.007Z,0.30
2023-03-05T11:18:37.614Z,0.35
2023-03-05T11:22:39.142Z,0.30
2023-03-05T11:26:52.172Z,2.47
2023-03-05T11:31:00.527Z,0.85
2023-03-05T11:35:02.038Z,0.30
2023-03-05T11:39:06.281Z,0.60
2023-03-05T11:43:15.338Z,0.30
2023-03-05T11:47:26.294Z,0.30
2023-03-05T11:51:43.516Z,0.30
2023-03-05T11:56:03.650Z,0.30
2023-03-05T12:00:12.321Z,0.32
2023-03-05T12:04:14.788Z,0.52
2023-03-05T12:08:27.478Z,0.30
2023-03-05T12:12:51.314Z,0.30
2023-03-05T12:17:23.959Z,0.30
2023-03-05T12:21:36.929Z,0.30
2023-03-05T12:25:56.390Z,0.30
2023-03-05T12:30:01.384Z,0.40
2023-03-05T12:34:40.987Z,0.30
2023-03-05T12:38:42.597Z,0.32
2023-03-05T12:42:54.702Z,0.30
2023-03-05T12:47:10.948Z,0.32
2023-03-05T12:51:13.054Z,0.40
2023-03-05T12:55:45.323Z,0.30
2023-03-05T12:59:55.075Z,0.30
2023-03-05T13:04:26.342Z,0.30
2023-03-05T13:08:32.602Z,0.30
2023-03-05T13:12:36.154Z,0.30
2023-03-05T13:16:39.513Z,0.30
2023-03-05T13:20:42.647Z,0.32
2023-03-05T13:24:44.119Z,0.30
2023-03-05T13:29:06.252Z,0.30
2023-03-05T13:33:17.397Z,0.30
2023-03-05T13:37:22.174Z,0.30
2023-03-05T13:41:27.114Z,0.30
2023-03-05T13:45:31.620Z,0.30
2023-03-05T13:49:33.245Z,0.30
2023-03-05T13:53:35.067Z,0.30
2023-03-05T13:57:38.773Z,0.30
2023-03-05T14:01:46.205Z,1.40
2023-03-05T14:05:49.835Z,0.30
2023-03-05T14:09:52.806Z,0.30
2023-03-05T14:14:08.050Z,0.30
2023-03-05T14:18:12.215Z,0.30
2023-03-05T14:22:32.135Z,0.30
2023-03-05T14:26:35.074Z,0.55
2023-03-05T14:30:36.687Z,0.50
2023-03-05T14:34:41.715Z,0.32
2023-03-05T14:38:43.420Z,0.30
2023-03-05T14:43:06.682Z,0.47
2023-03-05T14:47:08.113Z,0.35
2023-03-05T14:51:10.757Z,0.45
2023-03-05T14:55:22.700Z,0.30
2023-03-05T14:59:24.147Z,0.30
2023-03-05T15:03:25.914Z,0.38
2023-03-05T15:07:31.576Z,0.40
2023-03-05T15:11:33.567Z,0.30
2023-03-05T15:15:35.249Z,0.35
2023-03-05T15:19:36.671Z,0.30
2023-03-05T15:23:38.486Z,0.30
2023-03-05T15:27:40.402Z,0.32
2023-03-05T15:31:41.840Z,0.30
2023-03-05T15:35:43.760Z,0.30
2023-03-05T15:39:45.525Z,0.30
2023-03-05T15:43:46.939Z,0.65
2023-03-05T15:47:50.069Z,0.40
2023-03-05T15:51:51.963Z,0.30
2023-03-05T15:55:53.354Z,0.40
2023-03-05T15:59:55.417Z,0.47
2023-03-05T16:03:56.999Z,0.40
2023-03-05T16:07:58.902Z,0.30
2023-03-05T16:12:01.397Z,0.47
2023-03-05T16:16:05.828Z,0.52
2023-03-05T16:20:08.842Z,0.52
2023-03-05T16:24:10.361Z,0.30
2023-03-05T16:28:11.934Z,0.30
2023-03-05T16:32:13.467Z,0.30
2023-03-05T16:36:26.591Z,0.30
2023-03-05T16:40:44.437Z,0.30
2023-03-05T16:44:49.878Z,0.68
2023-03-05T16:48:51.577Z,0.30
2023-03-05T16:52:52.997Z,0.32
2023-03-05T16:56:54.421Z,0.30
2023-03-05T17:00:56.087Z,0.30
2023-03-05T17:04:57.803Z,0.20
2023-03-05T17:09:00.114Z,0.32
2023-03-05T17:13:01.597Z,0.30
2023-03-05T17:17:03.006Z,0.30
2023-03-05T17:21:07.304Z,0.30
2023-03-05T17:25:09.006Z,0.40
2023-03-05T17:29:10.560Z,0.32
2023-03-05T17:33:12.111Z,0.35
2023-03-05T17:37:13.617Z,0.45
2023-03-05T17:41:16.681Z,1.35
2023-03-05T17:45:18.124Z,1.30
2023-03-05T17:49:19.793Z,1.15
2023-03-05T17:53:22.330Z,1.23
2023-03-05T17:57:23.843Z,1.20
2023-03-05T18:01:31.849Z,1.17
2023-03-05T18:05:33.343Z,0.57
2023-03-05T18:09:34.749Z,0.60
2023-03-05T18:13:36.463Z,0.52
2023-03-05T18:17:38.377Z,1.10
2023-03-05T18:21:40.927Z,0.88
2023-03-05T18:25:44.288Z,0.90
2023-03-05T18:29:45.894Z,1.25
2023-03-05T18:33:47.355Z,1.02
2023-03-05T18:37:48.776Z,1.23
2023-03-05T18:41:50.309Z,1.08
2023-03-05T18:45:54.094Z,0.82
2023-03-05T18:49:56.351Z,1.65
2023-03-05T18:53:57.909Z,2.30
2023-03-05T18:57:59.664Z,1.63
2023-03-05T19:02:01.099Z,1.63
2023-03-05T19:06:05.426Z,2.17
2023-03-05T19:10:09.658Z,2.20
2023-03-05T19:14:11.440Z,1.50
2023-03-05T19:18:13.192Z,1.48
2023-03-05T19:22:14.655Z,1.15
2023-03-05T19:26:16.178Z,2.20
2023-03-05T19:30:17.870Z,0.85
2023-03-05T19:34:20.576Z,0.90
2023-03-05T19:38:22.074Z,1.15
2023-03-05T19:42:23.498Z,1.23
2023-03-05T19:46:25.126Z,2.30
2023-03-05T19:50:27.063Z,1.73
2023-03-05T19:54:28.565Z,1.15
2023-03-05T19:58:29.975Z,1.35
2023-03-05T20:02:32.698Z,1.90
2023-03-05T20:06:34.652Z,2.08
2023-03-05T20:10:36.070Z,1.98
2023-03-05T20:14:37.849Z,1.73
2023-03-05T20:18:39.383Z,1.83
2023-03-05T20:22:43.143Z,1.58
2023-03-05T20:26:46.319Z,1.88
2023-03-05T20:30:53.362Z,1.30
2023-03-05T20:34:56.097Z,2.08
2023-03-05T20:38:57.551Z,1.45
2023-03-05T20:42:59.047Z,1.13
2023-03-05T20:47:12.562Z,1.15
2023-03-05T20:51:22.410Z,1.15
2023-03-05T20:59:25.349Z,1.25
2023-03-05T21:03:26.784Z,1.52
2023-03-05T21:07:29.611Z,1.48
2023-03-05T21:11:32.037Z,0.95
2023-03-05T21:15:33.482Z,1.40
2023-03-05T21:19:37.823Z,0.65
2023-03-05T21:23:39.304Z,1.42
2023-03-05T21:27:40.861Z,1.35
2023-03-05T21:31:42.340Z,0.93
2023-03-05T21:35:44.073Z,1.60
2023-03-05T21:39:45.608Z,1.50
2023-03-05T21:43:47.109Z,1.17
2023-03-05T21:47:49.371Z,1.17
2023-03-05T21:52:08.868Z,1.33
2023-03-05T21:56:22.443Z,1.50
2023-03-05T22:00:23.949Z,0.95
2023-03-05T22:04:25.544Z,1.33
2023-03-05T22:08:29.737Z,1.02
2023-03-05T22:12:52.592Z,0.80
2023-03-05T22:16:56.845Z,1.02
2023-03-05T22:20:59.131Z,0.90
2023-03-05T22:25:00.788Z,1.20
2023-03-05T22:29:02.497Z,0.60
2023-03-05T22:33:04.017Z,0.88
2023-03-05T22:37:05.496Z,0.70
2023-03-05T22:41:09.849Z,0.68
2023-03-05T22:45:15.036Z,0.40
2023-03-05T22:49:16.493Z,0.65
2023-03-05T22:53:17.918Z,0.60
2023-03-05T22:57:19.434Z,0.82
2023-03-05T23:01:24.060Z,0.60
2023-03-05T23:05:25.490Z,0.82
2023-03-05T23:09:26.931Z,0.38
2023-03-05T23:13:28.346Z,0.40
2023-03-05T23:17:29.755Z,0.40
2023-03-05T23:21:31.175Z,0.68
2023-03-05T23:25:34.549Z,0.52
2023-03-05T23:29:48.192Z,0.43
2023-03-05T23:33:49.620Z,0.60
2023-03-05T23:37:52.328Z,0.75
2023-03-05T23:41:53.745Z,0.80
2023-03-05T23:45:56.098Z,0.50
2023-03-05T23:49:57.594Z,0.65
2023-03-05T23:53:58.999Z,0.57
2023-03-05T23:58:00.790Z,0.80
